createdAt,value
2022-11-25T00:01:00.754Z,3.5
2022-11-25T00:03:02.826Z,4.2
2022-11-25T00:05:04.742Z,4
2022-11-25T00:07:06.730Z,3.4
2022-11-25T00:09:08.723Z,5.8
2022-11-25T00:11:10.733Z,4.2
2022-11-25T00:13:15.788Z,3.6
2022-11-25T00:15:17.791Z,3.8
2022-11-25T00:17:19.785Z,5
2022-11-25T00:19:21.781Z,3.9
2022-11-25T00:21:23.798Z,3.2
2022-11-25T00:23:29.183Z,4.1
2022-11-25T00:25:27.798Z,3.7
2022-11-25T00:27:32.855Z,5.7
2022-11-25T00:29:34.836Z,4
2022-11-25T00:31:36.890Z,3
2022-11-25T00:32:39.371Z,3.3
2022-11-25T00:34:41.352Z,4.2
2022-11-25T00:36:43.346Z,2.7
2022-11-25T00:38:45.359Z,3.2
2022-11-25T00:40:50.407Z,4
2022-11-25T00:42:52.437Z,4.5
2022-11-25T00:44:54.431Z,3.2
2022-11-25T00:46:56.401Z,3.3
2022-11-25T00:48:58.418Z,3.6
2022-11-25T00:51:00.413Z,5
2022-11-25T00:53:02.412Z,3.5
2022-11-25T00:55:07.449Z,3.7
2022-11-25T00:57:09.459Z,3.6
2022-11-25T00:59:11.466Z,4.3
2022-11-25T01:01:13.519Z,3.9
2022-11-25T01:03:15.448Z,4.1
2022-11-25T01:05:17.441Z,3.4
2022-11-25T01:07:19.441Z,4
2022-11-25T01:09:24.497Z,4.7
2022-11-25T01:11:26.478Z,4.3
2022-11-25T01:13:28.450Z,3.8
2022-11-25T01:15:30.482Z,4.1
2022-11-25T01:17:32.472Z,4.7
2022-11-25T01:19:34.470Z,3.5
2022-11-25T01:21:36.463Z,4.7
2022-11-25T01:23:41.517Z,3.9
2022-11-25T01:25:43.529Z,3.8
2022-11-25T01:27:45.486Z,4.9
2022-11-25T01:30:02.152Z,4.6
2022-11-25T01:32:04.231Z,4.9
2022-11-25T01:34:06.153Z,4.3
2022-11-25T01:36:11.193Z,4.6
2022-11-25T01:38:13.179Z,5.7
2022-11-25T01:40:15.155Z,4.4
2022-11-25T01:42:17.159Z,4.2
2022-11-25T01:44:19.175Z,4.2
2022-11-25T01:46:21.283Z,4.4
2022-11-25T01:48:23.162Z,5
2022-11-25T01:50:28.260Z,5.1
2022-11-25T01:52:30.262Z,5.1
2022-11-25T01:54:32.255Z,4.3
2022-11-25T01:56:34.254Z,4.5
2022-11-25T01:58:36.210Z,3.8
2022-11-25T02:00:38.220Z,4.8
2022-11-25T02:02:41.757Z,6.6
2022-11-25T02:04:46.740Z,5.2
2022-11-25T02:06:48.765Z,4
2022-11-25T02:08:50.754Z,5.6
2022-11-25T02:10:52.738Z,4
2022-11-25T02:12:54.761Z,5.4
2022-11-25T02:14:56.746Z,3.8
2022-11-25T02:19:03.795Z,5.3
2022-11-25T02:23:07.845Z,4.2
2022-11-25T02:28:14.329Z,4.8
2022-11-25T02:30:16.326Z,3.7
2022-11-25T02:32:21.379Z,5
2022-11-25T02:34:23.318Z,5.2
2022-11-25T02:36:25.327Z,4.8
2022-11-25T02:38:27.340Z,4.4
2022-11-25T02:40:29.325Z,4
2022-11-25T02:42:31.301Z,4.8
2022-11-25T02:44:33.677Z,4.4
2022-11-25T02:46:38.354Z,4.3
2022-11-25T02:49:07.398Z,3.3
2022-11-25T02:50:42.369Z,3.7
2022-11-25T02:52:44.375Z,3.5
2022-11-25T02:54:46.349Z,4.3
2022-11-25T02:56:48.350Z,4.2
2022-11-25T02:58:50.330Z,4.8
2022-11-25T03:00:55.411Z,5.9
2022-11-25T03:02:57.523Z,6.3
2022-11-25T03:04:59.401Z,4.9
2022-11-25T03:07:01.389Z,4.8
2022-11-25T03:09:03.411Z,4.1
2022-11-25T03:11:05.373Z,4.1
2022-11-25T03:13:07.487Z,4.5
2022-11-25T03:15:12.433Z,4.7
2022-11-25T03:17:14.415Z,4.9
2022-11-25T03:19:16.428Z,6.2
2022-11-25T03:22:20.975Z,4.2
2022-11-25T03:28:30.008Z,4.8
2022-11-25T03:30:31.990Z,4.7
2022-11-25T03:36:38.037Z,4.8
2022-11-25T03:38:39.993Z,3
2022-11-25T03:40:41.986Z,5.3
2022-11-25T03:42:47.031Z,4.7
2022-11-25T03:52:56.998Z,4.9
2022-11-25T03:54:58.994Z,3.7
2022-11-25T04:03:09.955Z,5.5
2022-11-25T04:05:11.953Z,5.1
2022-11-25T04:07:14.019Z,4
2022-11-25T04:09:15.959Z,5.3
2022-11-25T04:16:27.559Z,4.4
2022-11-25T04:18:29.490Z,4.5
2022-11-25T04:20:31.525Z,4
2022-11-25T04:22:33.506Z,4.5
2022-11-25T04:24:38.681Z,4.7
2022-11-25T04:26:40.530Z,5
2022-11-25T04:28:42.513Z,5.6
2022-11-25T04:30:44.637Z,5.4
2022-11-25T04:32:46.550Z,3.9
2022-11-25T04:34:48.569Z,6.6
2022-11-25T04:36:50.545Z,5.3
2022-11-25T04:38:55.654Z,4.8
2022-11-25T04:40:57.576Z,5.1
2022-11-25T04:43:03.419Z,4.1
2022-11-25T04:45:22.089Z,7.3
2022-11-25T04:47:03.625Z,5.1
2022-11-25T04:49:05.563Z,4.4
2022-11-25T04:51:07.593Z,4.4
2022-11-25T04:53:12.644Z,4.6
2022-11-25T04:55:14.613Z,5.7
2022-11-25T04:57:16.615Z,3.9
2022-11-25T04:59:18.621Z,5.3
2022-11-25T05:01:20.667Z,4.2
2022-11-25T05:03:22.620Z,5.9
2022-11-25T05:05:24.626Z,4.6
2022-11-25T05:07:29.870Z,5.4
2022-11-25T05:09:31.666Z,3.8
2022-11-25T05:11:33.658Z,4.4
2022-11-25T05:13:56.460Z,4.7
2022-11-25T05:15:58.468Z,5
2022-11-25T05:18:00.451Z,5.9
2022-11-25T05:20:05.496Z,5.9
2022-11-25T05:22:07.529Z,5.3
2022-11-25T05:24:09.504Z,4.2
2022-11-25T05:26:11.522Z,4.6
2022-11-25T05:28:13.495Z,4.3
2022-11-25T05:30:15.525Z,4.3
2022-11-25T05:32:17.491Z,4.1
2022-11-25T05:34:22.534Z,4.4
2022-11-25T05:36:24.663Z,3.3
2022-11-25T05:38:26.647Z,4.3
2022-11-25T05:40:28.668Z,4.1
2022-11-25T05:42:30.655Z,3.8
2022-11-25T05:44:32.612Z,3.1
2022-11-25T05:46:34.701Z,3.4
2022-11-25T05:48:39.667Z,3.5
2022-11-25T05:50:41.691Z,3.1
2022-11-25T05:52:43.683Z,2.7
2022-11-25T05:56:47.658Z,3.7
2022-11-25T06:00:51.674Z,2.2
2022-11-25T06:02:56.856Z,3.5
2022-11-25T06:04:58.741Z,2.1
2022-11-25T06:07:00.731Z,3
2022-11-25T06:08:03.246Z,3.4
2022-11-25T06:10:05.227Z,2.4
2022-11-25T06:12:07.231Z,3.3
2022-11-25T06:14:09.226Z,3.3
2022-11-25T06:16:14.343Z,2.8
2022-11-25T06:18:16.286Z,2.4
2022-11-25T06:20:18.276Z,2.7
2022-11-25T06:32:37.364Z,3
2022-11-25T06:34:35.672Z,3.4
2022-11-25T06:36:37.241Z,2.7
2022-11-25T06:38:39.230Z,3.9
2022-11-25T06:40:41.257Z,4
2022-11-25T06:42:43.240Z,3.5
2022-11-25T06:44:48.286Z,4
2022-11-25T06:46:50.393Z,5
2022-11-25T06:48:52.279Z,6
2022-11-25T06:50:54.284Z,5
2022-11-25T06:54:58.279Z,3.7
2022-11-25T06:57:00.274Z,4.3
2022-11-25T06:59:05.324Z,4.4
2022-11-25T07:01:07.318Z,5.7
2022-11-25T07:04:11.830Z,6.3
2022-11-25T07:06:13.835Z,4.5
2022-11-25T07:08:15.815Z,5.5
2022-11-25T07:10:17.860Z,4.5
2022-11-25T07:12:22.884Z,4.8
2022-11-25T07:16:26.992Z,5.2
2022-11-25T07:20:30.859Z,5
2022-11-25T07:22:32.854Z,4.5
2022-11-25T07:26:39.908Z,6.1
2022-11-25T07:28:41.866Z,4.5
2022-11-25T07:32:45.857Z,5.5
2022-11-25T07:34:47.874Z,5.8
2022-11-25T07:36:49.881Z,5.7
2022-11-25T07:38:51.889Z,6
2022-11-25T07:40:56.903Z,5.7
2022-11-25T07:42:58.876Z,6.6
2022-11-25T07:45:00.882Z,6.1
2022-11-25T07:47:02.871Z,5.7
2022-11-25T07:49:05.007Z,5.1
2022-11-25T07:51:06.865Z,5.8
2022-11-25T07:53:08.887Z,7.7
2022-11-25T07:55:15.412Z,6
2022-11-25T07:57:17.456Z,6.4
2022-11-25T07:59:19.427Z,5.1
2022-11-25T08:06:28.021Z,4.8
2022-11-25T08:14:39.009Z,5.6
2022-11-25T08:16:41.009Z,5.1
2022-11-25T08:22:50.328Z,5.6
2022-11-25T08:37:07.394Z,4.5
2022-11-25T08:39:29.045Z,3.9
2022-11-25T08:41:11.325Z,4.8
2022-11-25T08:43:13.295Z,4.4
2022-11-25T08:47:17.264Z,3.8
2022-11-25T08:49:19.262Z,5.1
2022-11-25T08:51:24.308Z,5.2
2022-11-25T08:53:26.306Z,6.1
2022-11-25T08:55:28.286Z,4.8
2022-11-25T08:59:53.063Z,4.8
2022-11-25T09:01:55.137Z,5.1
2022-11-25T09:04:00.133Z,4.2
2022-11-25T09:06:02.106Z,4.9
2022-11-25T09:10:06.096Z,5.7
2022-11-25T09:12:08.102Z,4.9
2022-11-25T09:14:10.134Z,4.1
2022-11-25T09:16:12.217Z,4.1
2022-11-25T09:18:17.167Z,4.4
2022-11-25T09:20:19.175Z,4.1
2022-11-25T09:22:21.177Z,4.3
2022-11-25T09:24:23.170Z,3.9
2022-11-25T09:26:25.187Z,3.7
2022-11-25T09:30:29.280Z,3
2022-11-25T09:32:34.337Z,4.6
2022-11-25T09:34:36.614Z,3.8
2022-11-25T09:36:38.301Z,3.1
2022-11-25T09:38:43.345Z,5.1
2022-11-25T09:40:42.303Z,4.6
2022-11-25T09:42:44.298Z,4.1
2022-11-25T09:44:46.324Z,3.8
2022-11-25T09:46:51.421Z,3.8
2022-11-25T09:48:53.342Z,3.5
2022-11-25T09:50:55.338Z,4.2
2022-11-25T09:53:59.884Z,3.5
2022-11-25T09:56:01.901Z,3.8
2022-11-25T09:58:03.874Z,3.7
2022-11-25T10:00:08.916Z,4.2
2022-11-25T10:04:12.905Z,4.2
2022-11-25T10:06:15.037Z,4.5
2022-11-25T10:08:16.955Z,3.9
2022-11-25T10:12:20.995Z,3.8
2022-11-25T10:18:30.020Z,3.7
2022-11-25T10:22:34.051Z,4.3
2022-11-25T10:28:43.092Z,4.8
2022-11-25T10:30:45.089Z,4.7
2022-11-25T10:32:47.091Z,4.2
2022-11-25T10:40:55.077Z,3.6
2022-11-25T10:43:00.131Z,4.7
2022-11-25T10:45:02.174Z,2.9
2022-11-25T10:47:15.124Z,3.6
2022-11-25T10:48:06.680Z,3.4
2022-11-25T10:50:08.686Z,5
2022-11-25T10:52:10.692Z,3.7
2022-11-25T10:54:12.706Z,2.3
2022-11-25T10:56:17.764Z,4.8
2022-11-25T10:58:19.765Z,3.4
2022-11-25T11:00:21.791Z,3.7
2022-11-25T11:02:23.879Z,3.7
2022-11-25T11:10:34.899Z,4.8
2022-11-25T11:12:36.908Z,4.2
2022-11-25T11:20:44.986Z,4.4
2022-11-25T11:22:46.962Z,4.2
2022-11-25T11:24:52.040Z,4.7
2022-11-25T11:26:54.059Z,3.9
2022-11-25T11:28:56.066Z,4
2022-11-25T11:30:58.119Z,4.2
2022-11-25T11:33:00.102Z,4.9
2022-11-25T11:35:02.097Z,3.5
2022-11-25T11:37:04.105Z,3.3
2022-11-25T11:39:09.190Z,4.6
2022-11-25T11:41:11.187Z,4.2
2022-11-25T11:43:13.196Z,4.8
2022-11-25T11:44:15.725Z,4.1
2022-11-25T11:46:17.797Z,4.2
2022-11-25T11:50:21.791Z,4.1
2022-11-25T11:52:26.871Z,3.5
2022-11-25T11:54:28.859Z,4
2022-11-25T11:56:35.668Z,4.3
2022-11-25T12:00:34.908Z,4.2
2022-11-25T12:02:36.922Z,4.2
2022-11-25T12:04:39.216Z,3.9
2022-11-25T12:08:46.014Z,4.2
2022-11-25T12:10:48.023Z,3.8
2022-11-25T12:12:50.072Z,4.4
2022-11-25T12:18:56.099Z,4
2022-11-25T12:23:03.176Z,3.7
2022-11-25T12:25:05.202Z,5
2022-11-25T12:27:07.209Z,4.8
2022-11-25T12:29:09.234Z,3.5
2022-11-25T12:31:11.324Z,4.7
2022-11-25T12:33:13.228Z,4.4
2022-11-25T12:35:18.344Z,4
2022-11-25T12:37:20.330Z,4.4
2022-11-25T12:39:22.342Z,4.7
2022-11-25T12:41:45.077Z,5.7
2022-11-25T12:43:47.093Z,4.7
2022-11-25T12:45:49.165Z,4.9
2022-11-25T12:47:54.172Z,4.7
2022-11-25T12:49:56.198Z,4
2022-11-25T12:51:58.228Z,4.9
2022-11-25T12:54:00.238Z,4.3
2022-11-25T12:56:02.301Z,4
2022-11-25T12:58:04.257Z,4.6
2022-11-25T13:00:39.301Z,4.8
2022-11-25T13:02:11.404Z,4.3
2022-11-25T13:04:13.368Z,3.4
2022-11-25T13:06:15.405Z,4.1
2022-11-25T13:08:17.392Z,5
2022-11-25T13:10:19.409Z,5.8
2022-11-25T13:12:21.784Z,3.9
2022-11-25T13:14:23.793Z,6.8
2022-11-25T13:16:29.235Z,4.6
2022-11-25T13:18:30.535Z,3.8
2022-11-25T13:20:32.583Z,4.3
2022-11-25T13:22:34.559Z,4.4
2022-11-25T13:24:37.031Z,4.1
2022-11-25T13:26:38.594Z,4.5
2022-11-25T13:28:40.606Z,4
2022-11-25T13:30:45.681Z,4.7
2022-11-25T13:32:47.697Z,4.3
2022-11-25T13:34:49.694Z,4.2
2022-11-25T13:35:52.239Z,3.5
2022-11-25T13:39:56.267Z,3.7
2022-11-25T13:41:58.287Z,3.6
2022-11-25T13:44:04.896Z,3.8
2022-11-25T13:46:06.915Z,5.9
2022-11-25T13:48:08.837Z,4.4
2022-11-25T13:50:21.843Z,3.9
2022-11-25T13:52:12.889Z,3.5
2022-11-25T13:54:14.893Z,5.6
2022-11-25T13:56:16.906Z,4.9
2022-11-25T13:58:21.969Z,3.7
2022-11-25T14:00:23.980Z,3.5
2022-11-25T14:02:26.141Z,3.3
2022-11-25T14:04:28.028Z,3.5
2022-11-25T14:06:30.044Z,4.4
2022-11-25T14:10:34.065Z,3.8
2022-11-25T14:16:43.279Z,3.1
2022-11-25T14:19:21.680Z,5.4
2022-11-25T14:20:47.193Z,5
2022-11-25T14:22:49.197Z,3.4
2022-11-25T14:24:51.221Z,3.9
2022-11-25T14:26:56.299Z,3.7
2022-11-25T14:28:58.310Z,3.4
2022-11-25T14:31:00.318Z,4
2022-11-25T14:32:02.888Z,4
2022-11-25T14:36:06.874Z,3.7
2022-11-25T14:38:08.889Z,3.7
2022-11-25T14:40:13.978Z,4.1
2022-11-25T14:42:16.018Z,3.9
2022-11-25T14:44:18.000Z,3.3
2022-11-25T14:46:20.069Z,2.6
2022-11-25T14:48:22.005Z,4
2022-11-25T14:50:34.711Z,3.7
2022-11-25T14:52:26.051Z,3.5
2022-11-25T14:54:31.116Z,3.3
2022-11-25T14:56:33.121Z,4.4
2022-11-25T14:58:35.122Z,4.2
2022-11-25T15:00:37.170Z,4.6
2022-11-25T15:02:39.231Z,3.5
2022-11-25T15:04:41.211Z,3.9
2022-11-25T15:06:43.220Z,2.9
2022-11-25T15:08:48.278Z,4.3
2022-11-25T15:10:50.297Z,3.6
2022-11-25T15:12:53.809Z,5.3
2022-11-25T15:14:54.337Z,4.9
2022-11-25T15:16:56.428Z,4
2022-11-25T15:18:58.360Z,5.1
2022-11-25T15:21:00.353Z,4.4
2022-11-25T15:23:05.449Z,7.9
2022-11-25T15:25:07.438Z,5.1
2022-11-25T15:28:11.980Z,4.9
2022-11-25T15:30:15.673Z,5.1
2022-11-25T15:32:15.988Z,4.1
2022-11-25T15:34:17.993Z,4
2022-11-25T15:36:23.075Z,3.9
2022-11-25T15:38:25.104Z,4.4
2022-11-25T15:40:27.113Z,4.5
2022-11-25T15:42:29.125Z,3.6
2022-11-25T15:44:31.120Z,3.7
2022-11-25T15:52:42.233Z,4.7
2022-11-25T15:54:44.228Z,3.8
2022-11-25T15:56:46.246Z,3.9
2022-11-25T15:58:48.256Z,5
2022-11-25T16:00:50.313Z,6.7
2022-11-25T16:02:52.322Z,4.4
2022-11-25T16:05:01.860Z,5.3
2022-11-25T16:09:01.418Z,4.4
2022-11-25T16:11:03.436Z,8.1
2022-11-25T16:13:05.448Z,7
2022-11-25T16:15:07.476Z,6.9
2022-11-25T16:17:09.544Z,6
2022-11-25T16:19:14.647Z,5.7
2022-11-25T16:21:16.555Z,5.4
2022-11-25T16:23:18.567Z,7
2022-11-25T16:25:35.390Z,8.1
2022-11-25T16:27:37.504Z,5.4
2022-11-25T16:29:39.902Z,5.5
2022-11-25T16:31:44.565Z,8.2
2022-11-25T16:33:46.515Z,6.6
2022-11-25T16:35:48.518Z,6.6
2022-11-25T16:37:50.520Z,6.2
2022-11-25T16:39:52.571Z,5.4
2022-11-25T16:41:54.545Z,5.5
2022-11-25T16:43:57.197Z,7.3
2022-11-25T16:46:01.697Z,6.2
2022-11-25T16:54:09.634Z,6.9
2022-11-25T17:00:18.715Z,6.5
2022-11-25T17:02:20.904Z,8
2022-11-25T17:04:22.699Z,8.2
2022-11-25T17:06:24.711Z,7.8
2022-11-25T17:08:26.765Z,8.5
2022-11-25T17:10:28.733Z,6.8
2022-11-25T17:14:36.021Z,8.1
2022-11-25T17:16:37.825Z,7.9
2022-11-25T17:21:44.338Z,9.8
2022-11-25T17:23:46.375Z,10
2022-11-25T17:25:48.369Z,8.3
2022-11-25T17:27:53.430Z,9
2022-11-25T17:31:58.724Z,10
2022-11-25T17:36:01.423Z,10.7
2022-11-25T17:38:03.429Z,11.4
2022-11-25T17:40:05.427Z,10.7
2022-11-25T17:42:10.442Z,11.5
2022-11-25T17:48:16.517Z,11.7
2022-11-25T17:50:18.515Z,11.4
2022-11-25T17:52:20.500Z,10.2
2022-11-25T18:02:33.600Z,15.5
2022-11-25T18:04:35.829Z,15.9
2022-11-25T18:06:37.556Z,12.2
2022-11-25T18:08:39.538Z,14.1
2022-11-25T18:10:44.636Z,14.3
2022-11-25T18:12:46.642Z,13.4
2022-11-25T18:14:48.662Z,18
2022-11-25T18:15:51.174Z,15
2022-11-25T18:17:53.183Z,17
2022-11-25T18:19:55.612Z,17
2022-11-25T18:21:57.168Z,14.7
2022-11-25T18:24:02.190Z,17
2022-11-25T18:26:04.199Z,16.1
2022-11-25T18:28:06.188Z,15.6
2022-11-25T18:30:08.186Z,15.3
2022-11-25T18:32:10.177Z,15.3
2022-11-25T18:34:12.130Z,12.5
2022-11-25T18:36:14.131Z,14.5
2022-11-25T18:38:19.194Z,14.8
2022-11-25T18:40:21.204Z,14.6
2022-11-25T18:42:23.174Z,26.8
2022-11-25T18:46:27.215Z,19.4
2022-11-25T18:48:29.163Z,17.8
2022-11-25T18:50:31.176Z,16.3
2022-11-25T18:52:36.212Z,18.6
2022-11-25T18:54:38.407Z,17.3
2022-11-25T18:56:40.170Z,18.4
2022-11-25T18:58:42.153Z,18.3
2022-11-25T19:00:44.159Z,18.4
2022-11-25T19:02:46.359Z,18.1
2022-11-25T19:04:48.133Z,17.2
2022-11-25T19:06:53.188Z,17.1
2022-11-25T19:08:55.203Z,17.8
2022-11-25T19:10:57.255Z,17.6
2022-11-25T19:11:59.834Z,18
2022-11-25T19:16:03.829Z,18.4
2022-11-25T19:20:10.946Z,22.1
2022-11-25T19:28:19.071Z,21.4
2022-11-25T19:30:21.155Z,24.3
2022-11-25T19:32:23.287Z,27.4
2022-11-25T19:34:28.282Z,27.1
2022-11-25T19:36:31.904Z,26
2022-11-25T19:38:33.953Z,24.5
2022-11-25T19:40:44.670Z,25
2022-11-25T19:42:38.095Z,27.4
2022-11-25T19:44:40.177Z,35.9
2022-11-25T19:47:13.203Z,28.9
2022-11-25T19:48:47.503Z,27.1
2022-11-25T19:50:49.577Z,23.9
2022-11-25T19:52:51.684Z,22.8
2022-11-25T19:54:53.730Z,23.6
2022-11-25T19:56:55.809Z,20.7
2022-11-25T19:58:57.912Z,20.1
2022-11-25T20:01:00.146Z,21.9
2022-11-25T20:03:05.250Z,23
2022-11-25T20:05:07.320Z,20
2022-11-25T20:07:09.339Z,21.2
2022-11-25T20:13:35.262Z,21.3
2022-11-25T20:15:40.399Z,23.2
2022-11-25T20:17:42.489Z,24.4
2022-11-25T20:19:44.450Z,22.6
2022-11-25T20:21:46.411Z,21.9
2022-11-25T20:23:48.510Z,24.5
2022-11-25T20:25:50.719Z,24.1
2022-11-25T20:27:52.556Z,22.7
2022-11-25T20:29:57.693Z,26.4
2022-11-25T20:31:59.751Z,23.7
2022-11-25T20:34:01.762Z,30.3
2022-11-25T20:36:03.749Z,29.9
2022-11-25T20:38:05.753Z,31.8
2022-11-25T20:40:07.806Z,28.5
2022-11-25T20:42:09.891Z,31.9
2022-11-25T20:44:15.126Z,35.9
2022-11-25T20:46:17.173Z,33.5
2022-11-25T20:48:19.197Z,33.9
2022-11-25T20:50:21.199Z,33.7
2022-11-25T20:52:23.187Z,31.1
2022-11-25T20:54:25.258Z,30.7
2022-11-25T20:56:27.266Z,29.4
2022-11-25T20:58:32.477Z,34.1
2022-11-25T21:00:34.555Z,29.8
2022-11-25T21:02:36.613Z,32.5
2022-11-25T21:07:43.253Z,30.3
2022-11-25T21:09:45.328Z,29.1
2022-11-25T21:11:50.516Z,33.1
2022-11-25T21:13:52.576Z,33.3
2022-11-25T21:15:54.763Z,36.2
2022-11-25T21:17:56.733Z,39.8
2022-11-25T21:24:02.930Z,37.7
2022-11-25T21:26:08.171Z,42.7
2022-11-25T21:28:10.242Z,44.7
2022-11-25T21:30:12.344Z,48
2022-11-25T21:32:14.499Z,40.1
2022-11-25T21:38:20.600Z,36.7
2022-11-25T21:40:25.860Z,42.2
2022-11-25T21:42:27.923Z,44.6
2022-11-25T21:44:29.968Z,43.7
2022-11-25T21:46:32.167Z,40.4
2022-11-25T21:48:34.107Z,39.3
2022-11-25T21:50:36.200Z,37
2022-11-25T21:52:38.284Z,34.7
2022-11-25T21:54:43.534Z,39.9
2022-11-25T21:58:47.638Z,32.1
2022-11-25T22:01:52.345Z,32.2
2022-11-25T22:03:54.430Z,29.7
2022-11-25T22:08:01.851Z,30
2022-11-25T22:10:03.778Z,31.3
2022-11-25T22:12:05.833Z,27.4
2022-11-25T22:18:12.055Z,27.4
2022-11-25T22:20:14.971Z,22.9
2022-11-25T22:24:22.289Z,26.3
2022-11-25T22:26:24.389Z,24.1
2022-11-25T22:28:26.455Z,23.5
2022-11-25T22:34:32.619Z,23.5
2022-11-25T22:36:37.910Z,24.8
2022-11-25T22:40:42.058Z,25
2022-11-25T22:42:44.112Z,25
2022-11-25T22:44:46.182Z,25.8
2022-11-25T22:46:48.273Z,24.3
2022-11-25T22:48:50.347Z,24.4
2022-11-25T22:50:55.580Z,24.6
2022-11-25T22:52:57.704Z,24.6
2022-11-25T22:54:59.806Z,23
2022-11-25T22:56:02.382Z,23.3
2022-11-25T22:58:04.493Z,23.4
2022-11-25T23:00:06.549Z,25
2022-11-25T23:02:08.742Z,21.2
2022-11-25T23:04:13.781Z,24.1
2022-11-25T23:06:15.715Z,20.6
2022-11-25T23:08:17.805Z,24.8
2022-11-25T23:10:19.864Z,23.4
2022-11-25T23:12:21.947Z,23
2022-11-25T23:14:24.026Z,22
2022-11-25T23:16:26.142Z,24
2022-11-25T23:18:35.387Z,23.8
2022-11-25T23:20:33.323Z,21.2
2022-11-25T23:22:35.341Z,21.1
2022-11-25T23:24:37.634Z,23.6
2022-11-25T23:26:39.485Z,22.1
2022-11-25T23:28:41.591Z,24.5
2022-11-25T23:30:43.671Z,23.3
2022-11-25T23:32:48.933Z,24
2022-11-25T23:34:50.977Z,24
2022-11-25T23:36:53.095Z,25.6
2022-11-25T23:38:55.139Z,25.8
2022-11-25T23:40:57.198Z,22.3
2022-11-25T23:42:59.320Z,24.9
2022-11-25T23:45:01.392Z,20.6
2022-11-25T23:47:06.627Z,21.9
2022-11-25T23:49:08.689Z,22.6
2022-11-25T23:51:10.770Z,23.7
2022-11-25T23:53:31.623Z,25.9
2022-11-25T23:55:33.742Z,25
2022-11-25T23:57:35.799Z,26.3
2022-11-25T23:59:41.031Z,26.1
